Time;durP1;ratioP1;P1;durP2;ratioP2;P2;SDS_P1;SDS_P2;PMS_P1;PMS_P2;Temp;Humidity;BMP_temperature;BMP_pressure;BME280_temperature;BME280_humidity;BME280_pressure;Samples;Min_cycle;Max_cycle;Signal;HPM_P1;HPM_P2
2020/12/27 09:01:31;;;;;;;7.95;7.15;;;;;;;5.72;96.42;94190.41;821314;71;32668;-77
2020/12/27 10:16:09;;;;;;;4.30;3.90;;;;;;;6.22;94.22;94109.23;820658;71;30410;-72
2020/12/27 10:31:37;;;;;;;3.42;3.20;;;;;;;6.24;93.82;94055.58;774640;75;33418;-72
2020/12/27 10:46:09;;;;;;;2.83;2.60;;;;;;;6.21;92.46;94036.06;821462;71;30014;-73
2020/12/27 11:01:34;;;;;;;2.98;2.77;;;;;;;6.46;91.07;94003.05;763695;75;33047;-74
2020/12/27 11:17:00;;;;;;;3.85;3.55;;;;;;;6.76;89.16;93964.97;780519;71;33140;-71
2020/12/27 11:31:39;;;;;;;3.25;3.05;;;;;;;6.59;88.22;93934.66;769727;75;33006;-71
2020/12/27 12:01:14;;;;;;;3.35;2.92;;;;;;;7.68;82.39;93867.80;818673;71;32735;-73
2020/12/27 12:16:49;;;;;;;3.62;3.05;;;;;;;7.59;82.49;93836.89;807881;71;31263;-72
2020/12/27 12:31:15;;;;;;;4.03;3.72;;;;;;;7.45;82.22;93832.14;813594;71;31881;-71
2020/12/27 12:46:47;;;;;;;4.50;4.10;;;;;;;7.45;82.33;93794.30;834718;69;32683;-72
2020/12/27 13:31:43;;;;;;;5.22;4.55;;;;;;;7.02;84.07;93782.14;786250;72;33568;-71
2020/12/27 13:46:38;;;;;;;5.78;4.92;;;;;;;6.81;85.58;93758.16;797633;72;32969;-72
2020/12/27 14:01:37;;;;;;;5.20;4.70;;;;;;;6.55;87.12;93754.59;767460;75;33533;-72
2020/12/27 14:16:16;;;;;;;5.28;4.37;;;;;;;6.44;87.35;93743.27;818028;71;32760;-75
2020/12/27 15:01:50;;;;;;;5.75;5.17;;;;;;;6.38;89.65;93693.82;773548;75;33104;-79
2020/12/27 15:31:40;;;;;;;9.45;6.42;;;;;;;6.44;89.19;93698.45;796861;72;33308;-76
2020/12/27 16:01:16;;;;;;;7.83;6.22;;;;;;;6.66;88.03;93659.33;818288;71;33154;-77
2020/12/27 16:31:44;;;;;;;10.18;7.10;;;;;;;6.66;90.29;93655.42;776614;75;33160;-79
2020/12/27 16:46:14;;;;;;;11.00;7.40;;;;;;;6.71;91.14;93656.12;816857;70;32756;-77
2020/12/27 17:01:38;;;;;;;10.45;7.70;;;;;;;6.74;93.62;93652.94;790287;73;33084;-77
2020/12/27 17:16:13;;;;;;;13.30;9.50;;;;;;;6.98;93.61;93675.53;817899;71;33230;-75
2020/12/27 17:46:42;;;;;;;20.52;13.88;;;;;;;7.61;93.08;93654.63;785261;74;34580;-79
2020/12/27 18:01:14;;;;;;;23.73;16.20;;;;;;;7.86;91.42;93644.23;821845;71;32088;-80
2020/12/27 18:16:36;;;;;;;22.45;16.93;;;;;;;8.02;91.45;93653.31;799341;73;32783;-78
2020/12/27 18:31:12;;;;;;;23.73;15.70;;;;;;;8.17;91.04;93656.17;818746;71;32046;-78
2020/12/27 18:46:46;;;;;;;34.85;25.23;;;;;;;8.37;90.13;93638.50;815475;71;32902;-80
2020/12/27 19:01:14;;;;;;;49.65;32.42;;;;;;;8.48;88.80;93652.94;809234;71;32160;-80
2020/12/27 19:16:25;;;;;;;43.45;31.40;;;;;;;8.42;88.35;93603.14;820788;71;32910;-77
2020/12/27 19:31:25;;;;;;;43.17;28.45;;;;;;;8.44;88.46;93591.09;824940;71;33152;-79
2020/12/27 19:46:18;;;;;;;38.80;27.25;;;;;;;8.49;88.89;93594.34;819057;71;32766;-78
2020/12/27 20:01:34;;;;;;;53.52;36.30;;;;;;;8.57;88.46;93603.32;822424;71;33255;-79
2020/12/27 20:16:58;;;;;;;58.10;43.38;;;;;;;8.56;88.52;93599.17;810915;72;33027;-78
2020/12/27 20:31:18;;;;;;;40.05;29.50;;;;;;;8.58;88.00;93598.34;816806;71;32951;-80
2020/12/27 20:46:38;;;;;;;47.53;30.57;;;;;;;8.58;87.86;93583.96;796060;72;33033;-79
2020/12/27 21:01:24;;;;;;;41.00;30.20;;;;;;;8.50;88.33;93575.52;821196;71;32029;-76
2020/12/27 21:16:13;;;;;;;43.28;29.65;;;;;;;8.56;88.34;93615.63;812844;71;32053;-78
2020/12/27 21:31:22;;;;;;;39.10;26.75;;;;;;;8.41;88.31;93606.30;817965;71;32737;-76
2020/12/27 21:46:49;;;;;;;31.68;24.77;;;;;;;8.33;89.13;93606.97;770346;75;33528;-78
2020/12/27 22:01:19;;;;;;;37.83;22.45;;;;;;;8.38;89.23;93603.47;819189;71;33291;-77
2020/12/27 22:16:40;;;;;;;36.90;25.43;;;;;;;8.36;89.49;93576.84;802284;72;32898;-78
2020/12/27 22:31:38;;;;;;;33.18;23.00;;;;;;;8.05;90.62;93542.25;795917;73;33042;-78
2020/12/27 22:46:36;;;;;;;16.82;12.25;;;;;;;7.81;91.27;93517.16;801025;72;33005;-78
2020/12/27 23:02:00;;;;;;;8.18;6.70;;;;;;;7.92;89.74;93471.99;766451;76;33655;-78
2020/12/27 23:16:21;;;;;;;10.20;8.40;;;;;;;7.74;89.74;93439.75;822424;71;32789;-77
2020/12/27 23:31:12;;;;;;;10.48;7.33;;;;;;;7.81;87.58;93455.02;785157;74;32884;-76
2020/12/27 23:46:36;;;;;;;10.28;7.95;;;;;;;7.93;86.28;93449.28;793635;72;33463;-78
